Time;durP1;ratioP1;P1;durP2;ratioP2;P2;SDS_P1;SDS_P2;PMS_P1;PMS_P2;Temp;Humidity;BMP_temperature;BMP_pressure;BME280_temperature;BME280_humidity;BME280_pressure;Samples;Min_cycle;Max_cycle;Signal;HPM_P1;HPM_P2
2023/09/27 00:01:56;;;;;;;11.70;7.72;;;16.80;94.70;;;;;;4958477;28;20475;-79
2023/09/27 00:04:21;;;;;;;14.95;8.52;;;16.80;94.70;;;;;;4975535;28;20082;-79
2023/09/27 00:06:47;;;;;;;12.48;7.78;;;16.80;94.80;;;;;;4975029;28;20046;-79
2023/09/27 00:09:14;;;;;;;10.07;6.80;;;16.80;94.90;;;;;;4973860;28;20028;-80
2023/09/27 00:11:40;;;;;;;11.73;7.68;;;16.80;95.00;;;;;;4975734;28;20437;-78
2023/09/27 00:14:05;;;;;;;12.23;7.47;;;16.90;95.20;;;;;;4975569;28;20069;-79
2023/09/27 00:16:31;;;;;;;11.50;7.80;;;16.90;95.30;;;;;;4975394;28;20086;-78
2023/09/27 00:18:57;;;;;;;11.70;7.40;;;16.90;95.30;;;;;;4975511;28;20086;-79
2023/09/27 00:21:22;;;;;;;11.27;7.53;;;16.90;95.40;;;;;;4974213;28;20038;-79
2023/09/27 00:23:48;;;;;;;12.85;8.05;;;17.00;95.50;;;;;;4964913;28;20037;-80
2023/09/27 00:26:13;;;;;;;14.50;7.65;;;17.00;95.50;;;;;;4975802;28;20027;-79
2023/09/27 00:28:39;;;;;;;13.43;7.28;;;17.00;95.60;;;;;;4975648;28;20048;-80
2023/09/27 00:31:05;;;;;;;15.85;7.32;;;17.00;95.60;;;;;;4958123;28;20031;-82
2023/09/27 00:33:31;;;;;;;11.95;7.28;;;17.00;95.60;;;;;;4958005;28;20138;-82
2023/09/27 00:35:56;;;;;;;11.10;7.25;;;17.10;95.70;;;;;;4957850;28;20174;-80
2023/09/27 00:38:22;;;;;;;10.75;7.32;;;17.10;95.70;;;;;;4973347;28;20093;-80
2023/09/27 00:40:48;;;;;;;11.65;7.47;;;17.10;95.80;;;;;;4973574;28;20474;-81
2023/09/27 00:43:31;;;;;;;12.80;7.78;;;17.10;95.90;;;;;;4957623;28;20395;-80
2023/09/27 00:46:01;;;;;;;13.40;7.05;;;17.20;96.00;;;;;;4975070;28;20031;-81
2023/09/27 00:48:27;;;;;;;11.93;8.48;;;17.10;95.90;;;;;;4957608;28;20179;-81
2023/09/27 00:50:54;;;;;;;12.20;8.40;;;17.10;95.90;;;;;;4957204;28;20038;-78
2023/09/27 00:53:26;;;;;;;11.77;8.05;;;17.10;96.00;;;;;;4974677;28;20043;-79
2023/09/27 00:55:52;;;;;;;15.25;8.15;;;17.00;96.00;;;;;;4961701;28;20089;-79
2023/09/27 00:58:19;;;;;;;14.27;8.77;;;17.00;96.10;;;;;;4965864;28;20035;-77
2023/09/27 01:00:54;;;;;;;12.13;8.77;;;17.00;96.10;;;;;;4973437;28;20026;-79
2023/09/27 01:03:20;;;;;;;11.20;7.95;;;17.00;96.20;;;;;;4956951;28;20039;-78
2023/09/27 01:05:46;;;;;;;11.27;8.00;;;17.00;96.20;;;;;;4973435;28;20030;-78
2023/09/27 01:08:11;;;;;;;12.57;8.10;;;16.90;96.20;;;;;;4974148;28;20094;-79
2023/09/27 01:10:37;;;;;;;13.70;8.35;;;16.90;96.30;;;;;;4957134;28;20475;-81
2023/09/27 01:13:04;;;;;;;12.57;9.10;;;16.90;96.40;;;;;;4957345;28;20085;-80
2023/09/27 01:15:31;;;;;;;13.40;8.63;;;16.90;96.50;;;;;;4973326;28;20558;-81
2023/09/27 01:17:59;;;;;;;13.15;8.57;;;16.90;96.50;;;;;;4972304;28;20029;-80
2023/09/27 01:20:26;;;;;;;10.88;8.40;;;16.90;96.60;;;;;;4974671;28;20059;-80
2023/09/27 01:22:59;;;;;;;15.23;9.30;;;16.80;96.60;;;;;;4972603;28;20047;-81
2023/09/27 01:25:32;;;;;;;14.40;8.80;;;16.80;96.60;;;;;;4974558;28;20062;-81
2023/09/27 01:27:59;;;;;;;13.45;8.30;;;16.80;96.60;;;;;;4974929;28;20074;-81
2023/09/27 01:30:25;;;;;;;12.95;8.48;;;16.80;96.50;;;;;;4956981;28;20167;-81
2023/09/27 01:32:51;;;;;;;13.55;9.00;;;16.70;96.50;;;;;;4973892;28;20567;-82
2023/09/27 01:35:17;;;;;;;12.90;8.73;;;16.70;96.50;;;;;;4974157;28;20110;-81
2023/09/27 01:37:42;;;;;;;13.63;9.43;;;16.70;96.50;;;;;;4973637;28;20106;-81
2023/09/27 01:40:16;;;;;;;14.43;9.30;;;16.60;96.80;;;;;;4974140;28;20555;-80
2023/09/27 01:42:43;;;;;;;16.52;10.40;;;16.50;96.60;;;;;;4974084;28;20509;-81
2023/09/27 01:45:12;;;;;;;18.88;9.93;;;16.50;96.60;;;;;;4974105;28;20118;-81
2023/09/27 01:47:38;;;;;;;13.45;9.23;;;16.50;96.70;;;;;;4974049;28;20096;-81
2023/09/27 01:50:06;;;;;;;13.45;9.48;;;16.50;96.80;;;;;;4973837;28;20026;-81
2023/09/27 01:52:32;;;;;;;14.13;9.38;;;16.50;96.80;;;;;;4973901;28;20070;-80
2023/09/27 01:54:58;;;;;;;11.75;8.60;;;16.40;96.80;;;;;;4974227;28;20035;-81
2023/09/27 01:57:23;;;;;;;15.10;10.40;;;16.40;96.90;;;;;;4973932;28;20046;-82
2023/09/27 01:59:49;;;;;;;12.82;9.27;;;16.40;96.90;;;;;;4974023;28;20051;-82
2023/09/27 02:02:15;;;;;;;13.63;9.40;;;16.30;96.90;;;;;;4973864;28;20065;-81
2023/09/27 02:04:40;;;;;;;15.02;10.40;;;16.30;97.00;;;;;;4974071;28;20047;-81
2023/09/27 02:07:06;;;;;;;12.77;9.50;;;16.30;97.00;;;;;;4972687;28;20050;-83
2023/09/27 02:09:32;;;;;;;16.92;10.88;;;16.30;97.00;;;;;;4974138;28;20035;-83
2023/09/27 02:11:57;;;;;;;15.45;10.80;;;16.20;96.90;;;;;;4972641;28;20486;-83
2023/09/27 02:14:23;;;;;;;16.85;11.10;;;16.20;97.00;;;;;;4973848;28;20054;-83
2023/09/27 02:16:49;;;;;;;14.27;10.73;;;16.20;97.00;;;;;;4974046;28;20039;-83
2023/09/27 02:19:14;;;;;;;14.77;11.27;;;16.10;96.90;;;;;;4972480;28;20398;-83
2023/09/27 02:21:40;;;;;;;16.40;11.68;;;16.10;96.90;;;;;;4975939;28;20038;-83
2023/09/27 02:24:07;;;;;;;16.08;11.07;;;16.10;97.00;;;;;;4972587;28;20030;-82
2023/09/27 02:26:33;;;;;;;16.67;11.55;;;16.00;97.00;;;;;;4956609;28;20027;-81
2023/09/27 02:29:00;;;;;;;16.00;12.27;;;16.10;97.00;;;;;;4973834;28;20039;-81
2023/09/27 02:31:25;;;;;;;15.10;11.00;;;16.00;97.00;;;;;;4976159;28;20039;-80
2023/09/27 02:33:51;;;;;;;16.00;12.27;;;16.00;97.30;;;;;;4976832;28;20483;-80
2023/09/27 02:36:17;;;;;;;17.17;12.02;;;15.90;97.00;;;;;;4977365;28;20031;-80
2023/09/27 02:38:43;;;;;;;15.07;11.57;;;15.90;97.00;;;;;;4960062;28;20199;-80
2023/09/27 02:41:09;;;;;;;17.63;11.73;;;15.90;97.00;;;;;;4977019;28;20031;-80
2023/09/27 02:43:35;;;;;;;17.25;12.50;;;15.90;97.00;;;;;;4977270;28;20117;-80
2023/09/27 02:46:01;;;;;;;15.13;11.60;;;15.80;97.00;;;;;;4959852;28;20094;-78
2023/09/27 02:48:28;;;;;;;15.75;11.23;;;15.80;97.10;;;;;;4976560;28;20075;-77
2023/09/27 02:50:55;;;;;;;13.75;11.02;;;15.80;97.20;;;;;;4959403;28;20027;-77
2023/09/27 02:53:21;;;;;;;16.98;11.27;;;15.80;97.20;;;;;;4975779;28;20058;-78
2023/09/27 02:55:47;;;;;;;14.40;10.43;;;15.70;97.30;;;;;;4976620;28;20137;-78
2023/09/27 02:58:12;;;;;;;14.00;10.90;;;15.60;97.30;;;;;;4959482;28;20453;-78
2023/09/27 03:00:38;;;;;;;16.13;9.85;;;15.60;97.40;;;;;;4959485;28;20033;-78
2023/09/27 03:03:07;;;;;;;13.93;10.35;;;15.60;97.50;;;;;;4975425;28;20039;-79
2023/09/27 03:05:35;;;;;;;14.15;10.55;;;15.60;97.70;;;;;;4976916;28;20031;-80
2023/09/27 03:08:00;;;;;;;14.93;11.30;;;15.60;97.80;;;;;;4976901;28;20422;-81
2023/09/27 03:10:26;;;;;;;16.60;12.02;;;15.50;97.90;;;;;;4977029;28;20027;-80
2023/09/27 03:12:54;;;;;;;14.52;11.20;;;15.50;97.90;;;;;;4959485;28;20515;-80
2023/09/27 03:15:20;;;;;;;15.80;11.13;;;15.50;98.00;;;;;;4976821;28;20054;-80
2023/09/27 03:17:47;;;;;;;15.80;11.10;;;15.50;98.10;;;;;;4976216;28;20118;-80
2023/09/27 03:20:16;;;;;;;15.55;11.90;;;15.50;98.20;;;;;;4976321;28;20522;-80
2023/09/27 03:22:48;;;;;;;12.93;10.60;;;15.50;98.30;;;;;;4959030;28;20027;-80
2023/09/27 03:25:17;;;;;;;15.40;10.82;;;15.50;98.30;;;;;;4976401;28;20039;-82
2023/09/27 03:27:42;;;;;;;14.15;10.82;;;15.50;98.40;;;;;;4976387;28;20158;-82
2023/09/27 03:30:08;;;;;;;15.98;10.40;;;15.40;98.30;;;;;;4979552;28;20105;-80
2023/09/27 03:32:34;;;;;;;15.80;10.80;;;15.40;98.40;;;;;;4975972;28;20062;-82
2023/09/27 03:35:00;;;;;;;14.27;10.90;;;15.40;98.40;;;;;;4976093;28;20035;-82
2023/09/27 03:37:26;;;;;;;14.38;10.55;;;15.40;98.40;;;;;;4958793;28;20038;-82
2023/09/27 03:39:52;;;;;;;17.88;10.82;;;15.40;98.40;;;;;;4975550;28;20037;-82
2023/09/27 03:42:22;;;;;;;16.23;12.07;;;15.40;98.40;;;;;;4976264;28;20110;-82
2023/09/27 03:44:51;;;;;;;16.08;10.48;;;15.30;98.40;;;;;;4976003;28;20034;-82
2023/09/27 03:47:16;;;;;;;13.85;10.27;;;15.30;98.40;;;;;;4958232;28;20114;-83
2023/09/27 03:49:42;;;;;;;13.48;10.95;;;15.30;98.50;;;;;;4974766;28;20490;-83
2023/09/27 03:52:08;;;;;;;14.55;10.80;;;15.30;98.50;;;;;;4957836;28;20085;-83
2023/09/27 03:54:34;;;;;;;14.73;11.85;;;15.30;98.60;;;;;;4958331;28;20027;-83
2023/09/27 03:56:59;;;;;;;17.48;12.88;;;15.30;98.60;;;;;;4958310;28;20141;-82
2023/09/27 03:59:25;;;;;;;17.92;13.15;;;15.20;98.70;;;;;;4975720;28;20039;-80
2023/09/27 04:01:51;;;;;;;18.40;12.10;;;15.20;98.80;;;;;;4976055;28;20041;-80
2023/09/27 04:04:17;;;;;;;17.38;12.25;;;15.20;98.90;;;;;;4976296;28;20491;-80
2023/09/27 04:06:43;;;;;;;14.77;11.65;;;15.20;99.00;;;;;;4975719;28;20027;-80
2023/09/27 04:09:09;;;;;;;14.95;12.05;;;15.20;99.10;;;;;;4975715;28;20102;-81
2023/09/27 04:11:36;;;;;;;14.52;11.48;;;15.20;99.20;;;;;;4976836;28;20063;-80
2023/09/27 04:14:02;;;;;;;16.48;11.80;;;15.20;99.20;;;;;;4961008;28;20035;-80
2023/09/27 04:16:30;;;;;;;15.38;12.32;;;15.20;99.50;;;;;;4960170;28;20041;-80
2023/09/27 04:18:57;;;;;;;17.65;11.55;;;15.20;99.30;;;;;;4975896;28;20039;-80
2023/09/27 04:21:23;;;;;;;12.93;10.60;;;15.20;99.40;;;;;;4975310;28;20034;-81
2023/09/27 04:23:59;;;;;;;16.08;11.25;;;15.20;99.40;;;;;;4975295;28;20033;-81
2023/09/27 04:26:26;;;;;;;14.15;10.70;;;15.20;99.50;;;;;;4975184;28;20498;-80
2023/09/27 04:28:53;;;;;;;17.70;12.38;;;15.10;99.50;;;;;;4975144;28;20042;-81
2023/09/27 04:31:19;;;;;;;16.40;12.90;;;15.10;99.50;;;;;;4974821;28;20041;-81
2023/09/27 04:33:47;;;;;;;16.17;12.48;;;15.10;99.60;;;;;;4975160;28;20436;-80
2023/09/27 04:36:15;;;;;;;17.15;12.10;;;15.10;99.60;;;;;;4960314;28;20090;-81
2023/09/27 04:38:45;;;;;;;15.85;12.45;;;15.10;99.60;;;;;;4990135;28;20367;-81
2023/09/27 04:41:14;;;;;;;17.60;12.35;;;15.10;99.90;;;;;;4994466;28;20034;-81
2023/09/27 04:43:42;;;;;;;19.80;13.27;;;15.10;99.80;;;;;;4994993;28;20425;-81
2023/09/27 04:46:11;;;;;;;15.38;12.25;;;15.10;99.90;;;;;;4994484;28;20030;-81
2023/09/27 04:48:36;;;;;;;15.60;11.85;;;15.10;99.90;;;;;;4992856;28;20385;-80
2023/09/27 04:51:03;;;;;;;16.75;12.07;;;15.00;99.80;;;;;;4993843;28;20106;-81
2023/09/27 04:53:30;;;;;;;14.43;11.23;;;15.00;99.80;;;;;;4994355;28;20486;-81
2023/09/27 04:55:56;;;;;;;15.95;12.18;;;14.90;99.70;;;;;;4994262;28;20473;-81
2023/09/27 04:58:22;;;;;;;17.48;11.93;;;14.90;99.70;;;;;;4994287;28;20022;-82
2023/09/27 05:00:47;;;;;;;18.17;12.05;;;14.90;99.70;;;;;;4993830;28;20045;-81
2023/09/27 05:03:13;;;;;;;15.82;11.23;;;14.90;99.80;;;;;;4976679;28;20398;-81
2023/09/27 05:05:38;;;;;;;16.20;12.48;;;14.80;99.80;;;;;;4994119;28;20641;-81
2023/09/27 05:08:05;;;;;;;16.25;12.27;;;14.80;99.90;;;;;;4994348;28;20030;-82
2023/09/27 05:10:31;;;;;;;17.05;12.98;;;14.80;99.90;;;;;;4993644;28;20039;-81
2023/09/27 05:12:56;;;;;;;14.95;11.40;;;14.80;99.90;;;;;;4988241;28;20031;-81
2023/09/27 05:15:22;;;;;;;17.23;12.60;;;14.80;99.90;;;;;;4993342;28;20490;-82
2023/09/27 05:17:48;;;;;;;15.13;11.65;;;14.80;99.90;;;;;;4976708;28;20034;-81
2023/09/27 05:20:14;;;;;;;14.30;11.05;;;14.80;99.90;;;;;;4993694;28;20439;-81
2023/09/27 05:22:41;;;;;;;16.35;12.10;;;14.80;99.90;;;;;;4993490;28;20053;-82
2023/09/27 05:25:08;;;;;;;14.23;10.80;;;14.80;99.90;;;;;;4993896;28;20077;-81
2023/09/27 05:27:34;;;;;;;17.30;12.23;;;14.80;99.90;;;;;;4983375;28;21154;-81
2023/09/27 05:30:00;;;;;;;18.02;11.85;;;14.80;99.90;;;;;;4975326;28;20039;-81
2023/09/27 05:32:27;;;;;;;16.83;10.68;;;14.80;99.90;;;;;;4993385;28;20022;-82
2023/09/27 05:34:53;;;;;;;21.35;12.50;;;14.80;99.90;;;;;;4993684;28;20457;-80
2023/09/27 05:37:19;;;;;;;18.55;12.30;;;14.80;99.90;;;;;;4995725;28;20422;-79
2023/09/27 05:39:44;;;;;;;15.35;12.02;;;14.80;99.90;;;;;;4993578;28;20113;-80
2023/09/27 05:42:10;;;;;;;17.90;12.57;;;14.80;99.90;;;;;;4993405;28;20441;-80
2023/09/27 05:44:36;;;;;;;15.70;11.07;;;14.80;99.90;;;;;;4992909;28;20039;-80
2023/09/27 05:47:01;;;;;;;15.43;11.68;;;14.80;99.90;;;;;;4993275;28;20047;-80
2023/09/27 05:49:27;;;;;;;20.60;12.10;;;14.80;99.90;;;;;;4993230;28;20038;-80
2023/09/27 05:51:53;;;;;;;17.77;12.35;;;14.80;99.90;;;;;;4985215;28;20038;-80
2023/09/27 05:54:22;;;;;;;18.23;12.02;;;14.80;99.90;;;;;;4974651;28;20047;-81
2023/09/27 05:56:53;;;;;;;17.08;12.02;;;14.90;99.90;;;;;;4973667;28;20046;-81
2023/09/27 05:59:19;;;;;;;15.07;12.00;;;14.90;99.90;;;;;;4956594;28;20035;-81
2023/09/27 06:01:44;;;;;;;16.38;11.80;;;14.90;99.90;;;;;;4956538;28;20031;-81
2023/09/27 06:04:10;;;;;;;18.40;12.73;;;14.90;99.90;;;;;;4975584;28;20158;-82
2023/09/27 06:06:39;;;;;;;17.35;13.23;;;14.90;99.90;;;;;;4977754;28;20023;-82
2023/09/27 06:09:05;;;;;;;17.45;11.95;;;14.90;99.90;;;;;;4977940;28;20027;-82
2023/09/27 06:11:34;;;;;;;17.00;12.43;;;14.90;99.90;;;;;;4959983;28;20034;-82
2023/09/27 06:14:00;;;;;;;16.90;11.98;;;15.00;99.90;;;;;;4977682;28;20046;-82
2023/09/27 06:16:25;;;;;;;16.23;11.77;;;15.00;99.90;;;;;;4977805;28;20035;-82
2023/09/27 06:18:51;;;;;;;16.63;11.65;;;15.00;99.90;;;;;;4977380;28;20452;-82
2023/09/27 06:21:17;;;;;;;17.52;12.45;;;15.10;99.90;;;;;;4979198;28;20035;-81
2023/09/27 06:23:42;;;;;;;15.68;12.40;;;15.10;99.90;;;;;;4980579;28;20035;-82
2023/09/27 06:26:09;;;;;;;17.77;12.98;;;15.10;99.90;;;;;;4962999;28;20038;-81
2023/09/27 06:28:37;;;;;;;15.32;12.25;;;15.10;99.90;;;;;;4979320;28;20135;-82
2023/09/27 06:31:06;;;;;;;20.65;13.93;;;15.20;99.90;;;;;;4977158;28;20035;-82
2023/09/27 06:33:39;;;;;;;15.30;12.63;;;15.20;99.90;;;;;;4977723;28;20031;-81
2023/09/27 06:36:07;;;;;;;20.30;12.80;;;15.20;99.90;;;;;;4959898;28;20055;-81
2023/09/27 06:38:33;;;;;;;16.90;12.98;;;15.30;99.90;;;;;;4977209;28;20391;-81
2023/09/27 06:40:58;;;;;;;17.73;12.98;;;15.30;99.90;;;;;;4977176;28;20062;-81
2023/09/27 06:43:28;;;;;;;16.50;12.93;;;15.30;99.90;;;;;;4987094;28;20035;-81
2023/09/27 06:45:53;;;;;;;18.40;12.38;;;15.40;99.90;;;;;;4992226;28;20121;-80
2023/09/27 06:48:20;;;;;;;14.57;11.80;;;15.50;99.90;;;;;;4996687;28;20128;-80
2023/09/27 06:50:47;;;;;;;15.18;11.48;;;15.50;99.90;;;;;;4979807;28;20035;-80
2023/09/27 06:53:13;;;;;;;15.60;12.52;;;15.60;99.90;;;;;;4995257;28;20475;-80
2023/09/27 06:55:39;;;;;;;20.05;12.40;;;15.60;99.90;;;;;;4997425;28;20030;-80
2023/09/27 06:58:05;;;;;;;17.10;12.15;;;15.70;99.90;;;;;;5000947;28;20026;-79
2023/09/27 07:00:31;;;;;;;16.13;12.32;;;15.80;99.90;;;;;;5001443;28;20041;-80
2023/09/27 07:02:56;;;;;;;16.73;12.50;;;15.80;99.90;;;;;;4983122;28;20074;-79
2023/09/27 07:05:22;;;;;;;16.33;11.52;;;15.90;99.90;;;;;;5000495;28;20026;-80
2023/09/27 07:07:52;;;;;;;14.18;11.15;;;16.00;99.90;;;;;;5000447;28;20057;-80
2023/09/27 07:10:18;;;;;;;14.35;11.38;;;16.10;99.90;;;;;;5000084;28;20073;-81
2023/09/27 07:12:44;;;;;;;16.05;11.65;;;16.20;99.90;;;;;;4978544;28;20344;-81
2023/09/27 07:15:12;;;;;;;16.33;11.38;;;16.20;99.90;;;;;;4994736;28;20037;-81
2023/09/27 07:17:39;;;;;;;15.48;11.30;;;16.30;99.90;;;;;;4995997;28;20027;-81
2023/09/27 07:20:15;;;;;;;13.15;10.88;;;16.30;99.90;;;;;;4995677;28;20478;-81
2023/09/27 07:22:42;;;;;;;15.30;10.60;;;16.40;99.90;;;;;;4995776;28;20509;-81
2023/09/27 07:25:12;;;;;;;19.50;12.48;;;16.40;99.90;;;;;;4977851;28;20090;-81
2023/09/27 07:27:40;;;;;;;14.27;11.02;;;16.50;99.90;;;;;;4987265;28;20026;-81
2023/09/27 07:30:10;;;;;;;17.02;11.77;;;16.60;99.90;;;;;;4968500;28;20061;-79
2023/09/27 07:32:37;;;;;;;17.60;11.77;;;16.60;99.90;;;;;;4986718;28;20027;-80
2023/09/27 07:35:07;;;;;;;15.15;11.15;;;16.70;99.90;;;;;;4981729;28;20038;-79
2023/09/27 07:37:34;;;;;;;14.85;11.68;;;16.70;99.90;;;;;;4976254;28;20039;-79
2023/09/27 07:40:00;;;;;;;14.07;10.60;;;16.70;99.90;;;;;;4975757;28;20106;-79
2023/09/27 07:42:25;;;;;;;14.63;11.95;;;16.70;99.90;;;;;;4976071;28;20043;-80
2023/09/27 07:44:51;;;;;;;14.50;11.98;;;16.80;99.90;;;;;;4975978;28;20095;-79
2023/09/27 07:47:17;;;;;;;12.90;10.85;;;16.80;99.90;;;;;;4961358;28;20121;-80
2023/09/27 07:49:43;;;;;;;12.35;10.90;;;16.80;99.90;;;;;;4962807;28;20077;-80
2023/09/27 07:52:09;;;;;;;17.10;11.90;;;16.90;99.90;;;;;;4975629;28;20122;-79
2023/09/27 07:54:35;;;;;;;13.73;10.55;;;16.90;99.90;;;;;;4975642;28;20121;-79
2023/09/27 07:57:01;;;;;;;16.50;11.05;;;16.90;99.90;;;;;;4975545;28;20471;-79
2023/09/27 07:59:28;;;;;;;15.85;11.98;;;17.00;99.90;;;;;;4979378;28;20438;-78
2023/09/27 08:01:54;;;;;;;14.63;11.52;;;17.10;99.90;;;;;;4992426;28;20065;-80
2023/09/27 08:04:19;;;;;;;13.45;11.02;;;17.10;99.90;;;;;;4994823;28;20070;-79
2023/09/27 08:06:46;;;;;;;13.95;10.98;;;17.20;99.90;;;;;;4977928;28;20034;-80
2023/09/27 08:09:14;;;;;;;16.15;11.68;;;17.20;99.90;;;;;;4995116;28;20023;-80
2023/09/27 08:11:39;;;;;;;14.65;11.50;;;17.20;99.90;;;;;;4986533;28;20410;-81
2023/09/27 08:14:05;;;;;;;16.83;11.85;;;17.30;99.90;;;;;;4989488;28;20035;-80
2023/09/27 08:16:31;;;;;;;16.13;11.98;;;17.40;99.90;;;;;;4958683;28;20038;-79
2023/09/27 08:18:56;;;;;;;14.77;11.40;;;17.40;99.90;;;;;;4989370;28;20035;-80
2023/09/27 08:21:22;;;;;;;14.52;11.65;;;17.50;99.80;;;;;;4977389;28;20433;-81
2023/09/27 08:23:50;;;;;;;14.43;11.15;;;17.50;99.70;;;;;;4994988;28;20485;-80
2023/09/27 08:26:16;;;;;;;12.38;10.68;;;17.60;99.60;;;;;;4976854;28;20041;-80
2023/09/27 08:28:41;;;;;;;15.02;10.32;;;17.60;99.60;;;;;;4978310;28;20117;-79
2023/09/27 08:31:07;;;;;;;11.20;9.10;;;17.70;99.50;;;;;;4979490;28;20034;-79
2023/09/27 08:33:33;;;;;;;11.90;9.55;;;17.70;99.50;;;;;;4977572;28;20401;-79
2023/09/27 08:35:58;;;;;;;12.20;9.88;;;17.80;99.50;;;;;;4994232;28;20086;-80
2023/09/27 08:38:24;;;;;;;11.25;9.13;;;17.90;99.50;;;;;;4994519;28;20034;-80
2023/09/27 08:40:50;;;;;;;11.77;8.65;;;18.00;99.30;;;;;;4994698;28;20054;-81
2023/09/27 08:43:16;;;;;;;18.88;10.20;;;18.10;99.20;;;;;;4994864;28;20489;-80
2023/09/27 08:45:44;;;;;;;11.15;9.15;;;18.20;99.00;;;;;;4994438;28;20030;-81
2023/09/27 08:48:12;;;;;;;13.63;9.35;;;18.20;98.80;;;;;;4994328;28;20386;-81
2023/09/27 08:50:38;;;;;;;11.80;9.75;;;18.30;98.70;;;;;;4994025;28;20065;-81
2023/09/27 08:53:04;;;;;;;12.00;9.45;;;18.40;98.60;;;;;;4994065;28;20046;-81
2023/09/27 08:55:30;;;;;;;12.07;9.02;;;18.50;98.50;;;;;;4977120;28;20043;-81
2023/09/27 08:57:56;;;;;;;16.02;9.65;;;18.60;98.30;;;;;;4994234;28;20057;-81
2023/09/27 09:00:26;;;;;;;12.40;8.82;;;18.70;98.20;;;;;;4993943;28;20081;-82
2023/09/27 09:03:00;;;;;;;12.65;9.13;;;18.80;98.10;;;;;;4994679;28;20430;-81
2023/09/27 09:05:30;;;;;;;12.48;8.80;;;18.90;98.00;;;;;;4994316;28;20122;-81
2023/09/27 09:08:03;;;;;;;12.02;7.55;;;19.00;97.80;;;;;;4994313;28;20058;-80
2023/09/27 09:10:29;;;;;;;11.23;8.48;;;19.10;97.60;;;;;;4982562;28;20042;-80
2023/09/27 09:12:54;;;;;;;11.15;8.15;;;19.20;97.40;;;;;;4975000;28;20039;-80
2023/09/27 09:15:39;;;;;;;9.77;7.72;;;19.30;97.20;;;;;;4958029;28;20031;-81
2023/09/27 09:18:06;;;;;;;10.07;7.45;;;19.40;97.00;;;;;;4976063;28;20498;-80
2023/09/27 09:20:48;;;;;;;9.75;7.07;;;19.50;96.90;;;;;;4976728;28;20030;-81
2023/09/27 09:23:33;;;;;;;10.32;7.28;;;19.70;96.80;;;;;;4975260;28;20047;-81
2023/09/27 09:26:00;;;;;;;11.10;7.07;;;19.90;96.70;;;;;;4957189;28;20027;-82
2023/09/27 09:28:27;;;;;;;13.98;7.70;;;20.10;96.60;;;;;;4974433;28;20037;-81
2023/09/27 09:30:54;;;;;;;9.88;7.15;;;20.30;96.30;;;;;;4974597;28;20105;-81
2023/09/27 09:33:21;;;;;;;12.15;6.93;;;20.40;96.00;;;;;;4987605;28;20034;-82
2023/09/27 09:35:47;;;;;;;11.57;7.25;;;20.60;95.70;;;;;;4977555;28;20070;-81
2023/09/27 09:38:23;;;;;;;9.07;6.43;;;20.70;95.30;;;;;;4973771;28;20438;-82
2023/09/27 09:40:56;;;;;;;7.82;5.35;;;20.80;95.00;;;;;;4974450;28;20035;-82
2023/09/27 09:43:33;;;;;;;8.57;5.65;;;21.00;94.70;;;;;;4975014;28;20069;-82
2023/09/27 09:46:00;;;;;;;8.43;5.70;;;21.00;94.30;;;;;;4974390;28;20039;-81
2023/09/27 09:48:27;;;;;;;8.13;5.10;;;21.20;93.80;;;;;;4973476;28;20036;-81
2023/09/27 09:51:03;;;;;;;9.57;6.03;;;21.20;93.40;;;;;;4970485;28;20117;-80
2023/09/27 09:53:29;;;;;;;7.38;4.95;;;21.40;93.00;;;;;;4984613;28;20101;-82
2023/09/27 09:55:59;;;;;;;8.93;5.18;;;21.50;92.60;;;;;;4995044;28;20043;-81
2023/09/27 09:58:27;;;;;;;8.10;4.85;;;21.70;92.20;;;;;;4976568;28;20370;-81
2023/09/27 10:00:54;;;;;;;7.72;5.15;;;21.70;91.80;;;;;;4993684;28;20081;-81
2023/09/27 10:03:22;;;;;;;6.18;4.07;;;21.80;91.50;;;;;;4993516;28;20062;-80
2023/09/27 10:05:51;;;;;;;6.35;4.03;;;22.00;91.50;;;;;;4975429;28;20027;-81
2023/09/27 10:08:18;;;;;;;7.20;3.65;;;22.30;91.70;;;;;;4993262;28;20123;-82
2023/09/27 10:10:44;;;;;;;5.57;3.25;;;22.80;91.60;;;;;;4992886;28;20038;-81
2023/09/27 10:13:11;;;;;;;5.70;3.13;;;23.00;91.10;;;;;;4975201;28;20046;-81
2023/09/27 10:15:38;;;;;;;4.53;3.00;;;23.40;90.90;;;;;;4993316;28;20049;-82
2023/09/27 10:18:22;;;;;;;5.60;2.55;;;23.90;90.60;;;;;;4964455;28;20374;-82
2023/09/27 10:21:03;;;;;;;6.35;2.47;;;24.60;89.60;;;;;;4973416;28;20061;-80
2023/09/27 10:23:47;;;;;;;5.15;2.17;;;25.10;88.00;;;;;;4987900;28;20035;-79
2023/09/27 10:26:37;;;;;;;5.55;2.67;;;25.40;85.60;;;;;;4976394;28;20055;-80
2023/09/27 10:31:30;;;;;;;5.57;2.75;;;26.30;82.60;;;;;;4993179;28;20114;-80
2023/09/27 10:33:55;;;;;;;3.85;1.90;;;26.60;80.60;;;;;;4992913;28;20026;-80
2023/09/27 10:36:21;;;;;;;4.55;2.42;;;26.60;78.20;;;;;;4975362;28;20532;-80
2023/09/27 10:38:50;;;;;;;5.10;2.38;;;26.60;75.40;;;;;;4975658;28;20038;-79
2023/09/27 10:41:42;;;;;;;4.97;2.50;;;26.50;74.40;;;;;;4993274;28;20083;-79
2023/09/27 10:44:08;;;;;;;3.90;1.98;;;26.30;72.90;;;;;;4975324;28;20038;-77
2023/09/27 10:46:43;;;;;;;3.53;2.08;;;26.30;73.10;;;;;;4992743;28;20049;-77
2023/09/27 10:49:09;;;;;;;5.95;2.85;;;26.30;72.40;;;;;;4992840;28;20393;-77
2023/09/27 10:51:36;;;;;;;5.38;2.20;;;26.40;71.90;;;;;;4993313;28;20031;-78
2023/09/27 10:54:10;;;;;;;5.88;2.50;;;26.50;71.50;;;;;;4996488;28;20506;-77
2023/09/27 10:56:37;;;;;;;4.03;2.30;;;26.50;70.30;;;;;;4996180;28;20038;-79
2023/09/27 10:59:04;;;;;;;8.57;2.83;;;26.50;69.50;;;;;;4995979;28;20050;-77
2023/09/27 11:01:31;;;;;;;5.57;2.70;;;26.40;69.20;;;;;;4996016;28;20387;-77
2023/09/27 11:04:01;;;;;;;5.15;2.65;;;26.40;69.40;;;;;;4978877;28;20097;-77
2023/09/27 11:06:28;;;;;;;5.38;2.53;;;26.50;69.70;;;;;;4996280;28;20544;-77
2023/09/27 11:09:07;;;;;;;6.18;1.83;;;26.80;69.40;;;;;;4996079;28;20101;-78
2023/09/27 11:11:34;;;;;;;3.65;2.03;;;27.00;68.50;;;;;;4995765;28;20045;-78
2023/09/27 11:14:00;;;;;;;3.75;2.08;;;27.10;67.40;;;;;;4996519;28;20125;-77
2023/09/27 11:16:25;;;;;;;6.80;2.85;;;27.10;66.90;;;;;;4995711;28;20109;-76
2023/09/27 11:18:51;;;;;;;6.88;2.78;;;27.00;65.80;;;;;;4996389;28;20031;-77
2023/09/27 11:21:19;;;;;;;4.53;2.10;;;27.00;65.60;;;;;;4996075;28;20030;-78
2023/09/27 11:24:03;;;;;;;6.43;2.65;;;27.10;65.80;;;;;;4978305;28;20390;-77
2023/09/27 11:26:31;;;;;;;4.75;2.10;;;27.10;65.30;;;;;;4996445;28;20057;-77
2023/09/27 11:28:57;;;;;;;4.65;2.47;;;27.00;64.90;;;;;;4996219;28;20037;-77
2023/09/27 11:31:24;;;;;;;5.45;2.95;;;26.90;64.60;;;;;;4995478;28;20110;-78
2023/09/27 11:33:50;;;;;;;5.25;2.40;;;26.70;64.80;;;;;;4995691;28;20034;-77
2023/09/27 11:36:16;;;;;;;6.80;3.20;;;26.60;65.30;;;;;;4995875;28;20081;-77
2023/09/27 11:38:50;;;;;;;5.40;2.80;;;26.60;65.30;;;;;;4995744;28;20509;-77
2023/09/27 11:41:17;;;;;;;4.15;2.47;;;26.60;65.40;;;;;;4996040;28;20406;-82
2023/09/27 11:43:44;;;;;;;4.15;2.55;;;26.70;65.60;;;;;;4996147;28;20433;-82
2023/09/27 11:46:09;;;;;;;5.25;2.85;;;26.90;66.30;;;;;;4970760;28;20085;-82
2023/09/27 11:48:35;;;;;;;5.03;2.50;;;27.20;66.00;;;;;;4986219;28;20046;-83
2023/09/27 11:51:02;;;;;;;6.43;2.50;;;27.80;65.90;;;;;;4984579;28;20114;-83
2023/09/27 11:53:28;;;;;;;5.90;2.88;;;28.40;65.00;;;;;;4983820;28;20133;-83
2023/09/27 11:55:55;;;;;;;4.53;2.60;;;29.10;64.00;;;;;;4993901;28;20119;-82
2023/09/27 11:58:21;;;;;;;5.03;2.10;;;29.70;63.60;;;;;;4989306;28;20038;-82
2023/09/27 12:00:47;;;;;;;4.38;2.33;;;30.50;63.30;;;;;;4984369;28;20034;-83
2023/09/27 12:03:13;;;;;;;4.68;2.38;;;31.20;62.20;;;;;;4985789;28;20031;-82
2023/09/27 12:05:39;;;;;;;6.07;2.38;;;31.80;61.00;;;;;;4986275;28;20026;-83
2023/09/27 12:08:06;;;;;;;6.60;2.17;;;32.50;59.90;;;;;;4986159;28;20070;-82
2023/09/27 12:10:32;;;;;;;2.80;1.98;;;33.00;58.20;;;;;;4966807;28;20093;-82
2023/09/27 12:12:58;;;;;;;6.93;3.08;;;33.70;56.80;;;;;;4985970;28;20026;-84
2023/09/27 12:15:24;;;;;;;5.90;2.85;;;34.20;54.30;;;;;;4984619;28;20042;-82
2023/09/27 12:17:49;;;;;;;4.93;2.38;;;34.50;52.30;;;;;;4977528;28;20130;-84
2023/09/27 12:20:15;;;;;;;6.00;2.45;;;34.80;51.40;;;;;;4975798;28;20031;-80
2023/09/27 12:22:41;;;;;;;4.72;2.13;;;35.10;50.10;;;;;;4957892;28;20482;-82
2023/09/27 12:25:07;;;;;;;5.18;2.45;;;35.30;49.70;;;;;;4975571;28;20050;-83
2023/09/27 12:27:34;;;;;;;7.35;2.30;;;35.50;49.00;;;;;;4975669;28;20049;-82
2023/09/27 12:30:00;;;;;;;5.28;2.33;;;35.60;48.70;;;;;;4975379;28;20035;-83
2023/09/27 12:32:25;;;;;;;7.05;2.20;;;35.70;48.10;;;;;;4975139;28;20101;-83
2023/09/27 12:34:52;;;;;;;3.85;2.17;;;35.80;47.70;;;;;;4975657;28;20050;-84
2023/09/27 12:37:18;;;;;;;4.90;2.30;;;35.80;47.30;;;;;;4975616;28;20035;-78